createdAt,value
2022-12-25T00:02:21.893Z,16.00
2022-12-25T00:04:48.675Z,13.77
2022-12-25T00:07:15.438Z,14.10
2022-12-25T00:09:42.315Z,12.48
2022-12-25T00:12:09.232Z,12.40
2022-12-25T00:14:36.038Z,12.45
2022-12-25T00:17:02.879Z,13.10
2022-12-25T00:19:29.716Z,12.23
2022-12-25T00:21:56.517Z,13.23
2022-12-25T00:24:23.459Z,12.57
2022-12-25T00:26:50.566Z,12.32
2022-12-25T00:29:17.578Z,13.10
2022-12-25T00:31:44.589Z,11.98
2022-12-25T00:34:11.518Z,13.32
2022-12-25T00:36:41.829Z,11.65
2022-12-25T00:39:09.744Z,12.10
2022-12-25T00:41:54.889Z,11.07
2022-12-25T00:44:21.734Z,12.48
2022-12-25T00:46:48.763Z,11.30
2022-12-25T00:49:15.599Z,12.43
2022-12-25T00:51:42.431Z,12.40
2022-12-25T00:54:09.369Z,11.45
2022-12-25T00:56:36.438Z,13.50
2022-12-25T00:59:03.818Z,12.30
2022-12-25T01:01:31.292Z,14.10
2022-12-25T01:03:58.389Z,14.32
2022-12-25T01:06:25.585Z,13.55
2022-12-25T01:09:14.268Z,14.18
2022-12-25T01:11:41.400Z,12.95
2022-12-25T01:14:08.303Z,12.70
2022-12-25T01:16:35.884Z,13.13
2022-12-25T01:19:02.755Z,13.02
2022-12-25T01:21:30.017Z,13.27
2022-12-25T01:23:57.122Z,13.15
2022-12-25T01:26:28.707Z,11.32
2022-12-25T01:28:55.517Z,11.95
2022-12-25T01:31:24.808Z,11.35
2022-12-25T01:33:52.908Z,12.20
2022-12-25T01:36:19.637Z,11.70
2022-12-25T01:38:46.651Z,11.55
2022-12-25T01:41:16.232Z,12.43
2022-12-25T01:43:59.717Z,11.85
2022-12-25T01:46:26.493Z,11.75
2022-12-25T01:48:54.960Z,10.82
2022-12-25T01:51:30.202Z,12.35
2022-12-25T01:54:00.085Z,12.60
2022-12-25T01:56:28.682Z,11.38
2022-12-25T01:58:57.196Z,12.35
2022-12-25T02:01:24.162Z,11.75
2022-12-25T02:03:55.351Z,12.45
2022-12-25T02:06:22.343Z,10.98
2022-12-25T02:08:49.703Z,11.40
2022-12-25T02:11:36.415Z,11.40
2022-12-25T02:14:03.262Z,9.55
2022-12-25T02:16:35.289Z,9.65
2022-12-25T02:19:59.593Z,10.23
2022-12-25T02:23:08.896Z,10.43
2022-12-25T02:25:59.893Z,10.02
2022-12-25T02:28:45.985Z,9.30
2022-12-25T02:31:22.270Z,9.38
2022-12-25T02:34:05.087Z,8.88
2022-12-25T02:36:42.767Z,9.52
2022-12-25T02:39:37.604Z,9.23
2022-12-25T02:42:08.903Z,9.27
2022-12-25T02:44:59.193Z,8.90
2022-12-25T02:47:45.252Z,9.23
2022-12-25T02:50:45.493Z,9.18
2022-12-25T02:53:31.477Z,9.10
2022-12-25T02:56:18.124Z,9.35
2022-12-25T02:59:04.033Z,8.98
2022-12-25T03:01:51.695Z,9.27
2022-12-25T03:04:42.212Z,9.27
2022-12-25T03:07:17.471Z,10.60
2022-12-25T03:10:18.872Z,9.02
2022-12-25T03:13:13.225Z,10.32
2022-12-25T03:15:58.836Z,9.95
2022-12-25T03:18:28.702Z,10.05
2022-12-25T03:21:14.403Z,10.43
2022-12-25T03:24:03.497Z,10.10
2022-12-25T03:26:49.152Z,9.93
2022-12-25T03:29:35.829Z,9.77
2022-12-25T03:32:21.469Z,9.68
2022-12-25T03:35:23.412Z,9.48
2022-12-25T03:38:30.521Z,10.88
2022-12-25T03:41:42.744Z,10.95
2022-12-25T03:44:39.887Z,10.63
2022-12-25T03:47:21.960Z,9.48
2022-12-25T03:50:23.550Z,9.98
2022-12-25T03:53:11.360Z,9.98
2022-12-25T03:55:59.762Z,8.70
2022-12-25T03:58:46.699Z,9.13
2022-12-25T04:01:32.429Z,10.30
2022-12-25T04:04:17.796Z,9.98
2022-12-25T04:07:02.899Z,9.32
2022-12-25T04:09:47.917Z,8.65
2022-12-25T04:12:33.250Z,9.55
2022-12-25T04:15:18.424Z,9.50
2022-12-25T04:18:03.480Z,9.93
2022-12-25T04:20:48.424Z,7.70
2022-12-25T04:23:33.665Z,9.77
2022-12-25T04:26:19.018Z,8.35
2022-12-25T04:31:49.904Z,8.63
2022-12-25T04:34:35.172Z,8.10
2022-12-25T04:37:01.939Z,9.85
2022-12-25T04:39:28.684Z,8.43
2022-12-25T04:41:55.421Z,8.25
2022-12-25T04:44:22.181Z,8.52
2022-12-25T04:46:49.094Z,7.78
2022-12-25T04:49:16.010Z,7.47
2022-12-25T04:51:42.833Z,8.20
2022-12-25T04:54:09.992Z,8.48
2022-12-25T04:56:45.821Z,8.23
2022-12-25T04:59:13.115Z,7.93
2022-12-25T05:01:40.232Z,7.28
2022-12-25T05:04:07.531Z,7.07
2022-12-25T05:06:34.294Z,7.45
2022-12-25T05:09:01.039Z,7.80
2022-12-25T05:11:27.776Z,6.80
2022-12-25T05:13:54.474Z,7.53
2022-12-25T05:16:21.606Z,7.05
2022-12-25T05:18:49.895Z,7.07
2022-12-25T05:21:17.215Z,7.22
2022-12-25T05:23:48.528Z,7.50
2022-12-25T05:26:17.274Z,7.65
2022-12-25T05:28:44.199Z,7.38
2022-12-25T05:31:11.360Z,6.90
2022-12-25T05:33:38.191Z,8.05
2022-12-25T05:36:07.300Z,7.50
2022-12-25T05:38:34.502Z,7.88
2022-12-25T05:41:01.666Z,7.65
2022-12-25T05:43:28.994Z,7.22
2022-12-25T05:45:55.813Z,7.70
2022-12-25T05:48:22.925Z,7.38
2022-12-25T05:50:52.881Z,7.10
2022-12-25T05:53:19.681Z,7.00
2022-12-25T05:55:46.508Z,8.00
2022-12-25T05:58:13.824Z,7.18
2022-12-25T06:00:43.355Z,7.07
2022-12-25T06:03:10.160Z,7.88
2022-12-25T06:05:39.751Z,8.23
2022-12-25T06:08:06.539Z,7.88
2022-12-25T06:10:33.284Z,7.15
2022-12-25T06:13:00.808Z,7.10
2022-12-25T06:15:27.707Z,7.40
2022-12-25T06:17:54.471Z,8.70
2022-12-25T06:20:21.391Z,7.75
2022-12-25T06:22:48.108Z,7.95
2022-12-25T06:25:15.015Z,8.15
2022-12-25T06:27:41.743Z,8.15
2022-12-25T06:30:09.247Z,8.55
2022-12-25T06:32:36.113Z,8.25
2022-12-25T06:35:03.271Z,8.23
2022-12-25T06:37:31.052Z,8.25
2022-12-25T06:39:57.941Z,9.07
2022-12-25T06:42:24.680Z,8.50
2022-12-25T06:44:51.567Z,7.63
2022-12-25T06:47:18.327Z,8.02
2022-12-25T06:49:45.106Z,7.40
2022-12-25T06:52:11.894Z,7.43
2022-12-25T06:54:38.787Z,7.50
2022-12-25T06:57:05.651Z,7.57
2022-12-25T06:59:32.399Z,7.90
2022-12-25T07:01:59.598Z,8.07
2022-12-25T07:04:38.154Z,7.72
2022-12-25T07:07:09.178Z,8.55
2022-12-25T07:09:38.837Z,7.25
2022-12-25T07:12:07.496Z,7.13
2022-12-25T07:14:34.732Z,7.07
2022-12-25T07:17:01.583Z,7.90
2022-12-25T07:19:28.575Z,8.30
2022-12-25T07:21:55.298Z,9.35
2022-12-25T07:24:23.303Z,7.85
2022-12-25T07:26:51.615Z,8.10
2022-12-25T07:29:22.023Z,8.50
2022-12-25T07:31:49.691Z,8.63
2022-12-25T07:34:19.741Z,9.02
2022-12-25T07:36:47.320Z,10.07
2022-12-25T07:39:14.240Z,8.95
2022-12-25T07:41:41.104Z,8.55
2022-12-25T07:44:07.859Z,9.15
2022-12-25T07:46:37.948Z,9.88
2022-12-25T07:49:04.862Z,10.15
2022-12-25T07:51:31.616Z,10.20
2022-12-25T07:53:58.449Z,10.02
2022-12-25T07:56:25.617Z,9.52
2022-12-25T07:58:52.409Z,9.70
2022-12-25T08:01:22.111Z,9.13
2022-12-25T08:04:00.503Z,10.27
2022-12-25T08:06:30.765Z,9.60
2022-12-25T08:09:02.771Z,10.48
2022-12-25T08:11:29.569Z,9.38
2022-12-25T08:13:56.532Z,11.02
2022-12-25T08:16:23.481Z,9.30
2022-12-25T08:18:50.403Z,10.15
2022-12-25T08:21:17.153Z,10.20
2022-12-25T08:23:46.158Z,9.80
2022-12-25T08:26:16.899Z,10.23
2022-12-25T08:28:43.777Z,10.88
2022-12-25T08:31:18.356Z,10.52
2022-12-25T08:33:45.812Z,9.80
2022-12-25T08:36:13.263Z,10.98
2022-12-25T08:38:40.612Z,10.50
2022-12-25T08:41:07.420Z,11.10
2022-12-25T08:43:34.386Z,10.70
2022-12-25T08:46:01.548Z,12.45
2022-12-25T08:48:28.608Z,11.27
2022-12-25T08:50:55.630Z,10.50
2022-12-25T08:53:22.600Z,10.27
2022-12-25T08:55:49.557Z,10.05
2022-12-25T08:58:16.709Z,9.93
2022-12-25T09:00:43.547Z,10.15
2022-12-25T09:03:10.524Z,10.13
2022-12-25T09:05:37.863Z,9.60
2022-12-25T09:08:05.035Z,10.60
2022-12-25T09:10:34.861Z,9.07
2022-12-25T09:13:01.602Z,9.13
2022-12-25T09:15:28.409Z,9.38
2022-12-25T09:17:55.274Z,8.02
2022-12-25T09:20:22.306Z,8.82
2022-12-25T09:22:49.172Z,8.90
2022-12-25T09:25:16.039Z,8.60
2022-12-25T09:27:43.682Z,8.82
2022-12-25T09:30:11.237Z,8.82
2022-12-25T09:32:40.428Z,9.65
2022-12-25T09:35:08.893Z,9.20
2022-12-25T09:37:36.249Z,8.85
2022-12-25T09:40:03.763Z,8.68
2022-12-25T09:42:32.412Z,9.05
2022-12-25T09:45:12.260Z,9.07
2022-12-25T09:47:41.908Z,9.70
2022-12-25T09:50:23.961Z,10.25
2022-12-25T09:53:04.924Z,9.73
2022-12-25T09:55:36.212Z,10.27
2022-12-25T09:58:10.635Z,11.02
2022-12-25T10:01:14.089Z,10.60
2022-12-25T10:03:46.700Z,10.07
2022-12-25T10:06:18.097Z,11.45
2022-12-25T10:09:19.863Z,11.27
2022-12-25T10:12:08.543Z,9.90
2022-12-25T10:18:23.536Z,10.63
2022-12-25T10:21:02.129Z,9.07
2022-12-25T10:23:47.360Z,9.25
2022-12-25T10:26:20.725Z,9.77
2022-12-25T10:28:53.895Z,8.88
2022-12-25T10:31:28.261Z,9.45
2022-12-25T10:33:55.761Z,8.98
2022-12-25T10:36:28.046Z,9.60
2022-12-25T10:38:55.523Z,9.43
2022-12-25T10:41:59.929Z,9.70
2022-12-25T10:44:26.794Z,9.80
2022-12-25T10:46:59.916Z,9.98
2022-12-25T10:49:34.189Z,9.90
2022-12-25T10:52:02.654Z,9.60
2022-12-25T10:54:37.528Z,10.02
2022-12-25T10:57:10.354Z,10.07
2022-12-25T10:59:57.777Z,10.73
2022-12-25T11:02:38.959Z,10.70
2022-12-25T11:05:09.244Z,11.02
2022-12-25T11:07:46.821Z,10.45
2022-12-25T11:10:16.977Z,9.82
2022-12-25T11:12:46.097Z,9.90
2022-12-25T11:15:34.024Z,10.90
2022-12-25T11:18:00.999Z,10.80
2022-12-25T11:20:27.997Z,11.05
2022-12-25T11:22:54.916Z,24.15
2022-12-25T11:25:27.486Z,17.80
2022-12-25T11:28:13.457Z,16.35
2022-12-25T11:30:40.912Z,10.68
2022-12-25T11:33:12.342Z,10.05
2022-12-25T11:35:52.992Z,9.80
2022-12-25T11:38:19.873Z,17.63
2022-12-25T11:40:53.346Z,11.90
2022-12-25T11:43:46.969Z,11.05
2022-12-25T11:46:23.560Z,11.45
2022-12-25T11:48:57.414Z,10.45
2022-12-25T11:51:29.187Z,11.07
2022-12-25T11:54:01.426Z,12.27
2022-12-25T11:56:30.760Z,9.27
2022-12-25T11:59:07.817Z,9.50
2022-12-25T12:01:42.502Z,10.75
2022-12-25T12:04:42.980Z,9.98
2022-12-25T12:07:27.627Z,12.02
2022-12-25T12:10:09.467Z,13.25
2022-12-25T12:12:49.091Z,11.98
2022-12-25T12:15:22.164Z,11.60
2022-12-25T12:17:48.966Z,11.20
2022-12-25T12:20:34.795Z,12.25
2022-12-25T12:23:05.233Z,40.35
2022-12-25T12:25:32.144Z,37.08
2022-12-25T12:28:05.336Z,50.58
2022-12-25T12:30:35.617Z,59.95
2022-12-25T12:33:05.214Z,18.80
2022-12-25T12:35:36.104Z,11.63
2022-12-25T12:38:07.009Z,14.15
2022-12-25T12:40:51.412Z,17.20
2022-12-25T12:43:28.512Z,13.32
2022-12-25T12:46:04.383Z,12.95
2022-12-25T12:48:39.133Z,12.40
2022-12-25T12:51:12.519Z,14.77
2022-12-25T12:53:41.937Z,10.07
2022-12-25T12:56:20.224Z,7.88
2022-12-25T12:58:52.371Z,8.00
2022-12-25T13:01:22.185Z,7.88
2022-12-25T13:04:19.893Z,8.07
2022-12-25T13:06:55.415Z,8.55
2022-12-25T13:09:27.960Z,7.82
2022-12-25T13:11:55.071Z,8.60
2022-12-25T13:14:24.352Z,8.20
2022-12-25T13:16:54.405Z,9.23
2022-12-25T13:19:23.954Z,8.45
2022-12-25T13:21:58.366Z,8.50
2022-12-25T13:24:30.463Z,7.85
2022-12-25T13:26:58.656Z,8.02
2022-12-25T13:29:34.480Z,7.53
2022-12-25T13:32:03.877Z,8.40
2022-12-25T13:34:31.954Z,7.63
2022-12-25T13:37:06.324Z,8.30
2022-12-25T13:39:36.534Z,8.00
2022-12-25T13:42:09.316Z,7.53
2022-12-25T13:44:44.205Z,7.60
2022-12-25T13:47:24.310Z,8.23
2022-12-25T13:49:56.058Z,9.02
2022-12-25T13:52:27.237Z,9.93
2022-12-25T13:54:55.804Z,9.50
2022-12-25T13:57:27.893Z,8.32
2022-12-25T13:59:55.440Z,8.82
2022-12-25T14:02:28.211Z,10.80
2022-12-25T14:04:55.324Z,10.93
2022-12-25T14:07:26.295Z,11.63
2022-12-25T14:10:03.463Z,12.38
2022-12-25T14:12:33.077Z,10.60
2022-12-25T14:15:18.548Z,32.00
2022-12-25T14:20:25.106Z,14.25
2022-12-25T14:22:54.980Z,11.07
2022-12-25T14:25:41.322Z,10.43
2022-12-25T14:28:20.437Z,8.40
2022-12-25T14:30:48.562Z,6.75
2022-12-25T14:33:22.069Z,8.68
2022-12-25T14:35:49.778Z,11.65
2022-12-25T14:38:36.929Z,11.00
2022-12-25T14:41:22.605Z,10.43
2022-12-25T14:43:54.944Z,9.82
2022-12-25T14:46:26.943Z,9.88
2022-12-25T14:49:05.483Z,11.52
2022-12-25T14:51:35.258Z,10.20
2022-12-25T14:54:15.583Z,10.30
2022-12-25T14:56:48.239Z,11.02
2022-12-25T14:59:25.286Z,10.88
2022-12-25T15:01:58.656Z,11.68
2022-12-25T15:04:27.910Z,11.05
2022-12-25T15:07:00.790Z,10.20
2022-12-25T15:09:29.911Z,11.32
2022-12-25T15:11:56.986Z,9.77
2022-12-25T15:14:25.127Z,10.85
2022-12-25T15:16:55.274Z,13.63
2022-12-25T15:19:36.465Z,11.93
2022-12-25T15:22:04.223Z,11.95
2022-12-25T15:24:31.162Z,10.23
2022-12-25T15:27:00.298Z,10.38
2022-12-25T15:30:00.166Z,10.10
2022-12-25T15:32:24.325Z,9.43
2022-12-25T15:34:51.250Z,8.95
2022-12-25T15:37:19.000Z,7.57
2022-12-25T15:39:46.493Z,8.30
2022-12-25T15:42:15.703Z,8.40
2022-12-25T15:44:49.287Z,8.50
2022-12-25T15:47:23.063Z,8.70
2022-12-25T15:49:50.827Z,8.60
2022-12-25T15:52:19.236Z,8.38
2022-12-25T15:54:46.756Z,7.47
2022-12-25T15:57:22.269Z,9.55
2022-12-25T15:59:49.287Z,7.63
2022-12-25T16:02:19.383Z,21.85
2022-12-25T16:04:47.104Z,12.80
2022-12-25T16:07:19.103Z,13.98
2022-12-25T16:09:46.184Z,13.02
2022-12-25T16:12:13.078Z,10.93
2022-12-25T16:14:39.984Z,10.95
2022-12-25T16:17:07.380Z,10.73
2022-12-25T16:19:34.192Z,11.77
2022-12-25T16:22:01.032Z,11.98
2022-12-25T16:24:27.844Z,10.77
2022-12-25T16:26:57.300Z,10.13
2022-12-25T16:29:24.184Z,8.70
2022-12-25T16:31:50.928Z,8.57
2022-12-25T16:34:17.970Z,8.68
2022-12-25T16:36:44.813Z,9.00
2022-12-25T16:39:11.710Z,8.70
2022-12-25T16:41:38.517Z,8.18
2022-12-25T16:44:09.629Z,8.85
2022-12-25T16:46:37.502Z,9.15
2022-12-25T16:49:04.639Z,10.63
2022-12-25T16:51:32.065Z,9.50
2022-12-25T16:53:58.881Z,9.52
2022-12-25T16:56:28.256Z,8.25
2022-12-25T16:58:56.928Z,8.70
2022-12-25T17:01:26.747Z,9.80
2022-12-25T17:03:54.026Z,14.70
2022-12-25T17:06:24.404Z,12.60
2022-12-25T17:08:53.649Z,10.38
2022-12-25T17:11:24.363Z,10.55
2022-12-25T17:13:51.260Z,9.52
2022-12-25T17:16:20.717Z,10.57
2022-12-25T17:18:47.537Z,10.10
2022-12-25T17:21:17.415Z,15.70
2022-12-25T17:23:45.167Z,13.27
2022-12-25T17:26:12.135Z,11.73
2022-12-25T17:28:38.965Z,12.18
2022-12-25T17:31:08.169Z,13.38
2022-12-25T17:33:39.897Z,12.57
2022-12-25T17:36:10.087Z,12.68
2022-12-25T17:38:37.985Z,12.27
2022-12-25T17:41:06.822Z,12.40
2022-12-25T17:43:42.213Z,13.57
2022-12-25T17:46:13.362Z,13.27
2022-12-25T17:48:40.467Z,12.95
2022-12-25T17:51:10.592Z,15.55
2022-12-25T17:53:39.639Z,21.25
2022-12-25T17:56:07.791Z,21.35
2022-12-25T17:58:34.607Z,23.40
2022-12-25T18:01:22.628Z,20.50
2022-12-25T18:03:50.812Z,21.27
2022-12-25T18:06:21.786Z,22.70
2022-12-25T18:08:49.698Z,21.85
2022-12-25T18:11:20.637Z,19.33
2022-12-25T18:13:52.014Z,20.67
2022-12-25T18:16:21.737Z,20.45
2022-12-25T18:18:52.263Z,19.25
2022-12-25T18:21:21.603Z,19.27
2022-12-25T18:23:49.294Z,16.80
2022-12-25T18:26:16.598Z,14.27
2022-12-25T18:28:44.085Z,12.35
2022-12-25T18:31:23.385Z,12.30
2022-12-25T18:33:51.710Z,12.18
2022-12-25T18:36:21.381Z,11.82
2022-12-25T18:38:50.093Z,15.05
2022-12-25T18:41:18.262Z,13.40
2022-12-25T18:43:53.089Z,13.70
2022-12-25T18:46:24.778Z,15.57
2022-12-25T18:48:52.838Z,15.60
2022-12-25T18:51:20.050Z,16.70
2022-12-25T18:53:47.313Z,16.98
2022-12-25T18:56:17.693Z,16.02
2022-12-25T18:58:46.442Z,15.88
2022-12-25T19:01:19.726Z,15.98
2022-12-25T19:03:49.116Z,17.23
2022-12-25T19:06:25.497Z,16.15
2022-12-25T19:08:53.590Z,18.40
2022-12-25T19:11:21.485Z,17.45
2022-12-25T19:13:48.978Z,17.98
2022-12-25T19:16:16.163Z,16.60
2022-12-25T19:18:44.068Z,15.07
2022-12-25T19:21:11.656Z,16.25
2022-12-25T19:23:39.717Z,15.40
2022-12-25T19:26:08.295Z,15.02
2022-12-25T19:28:36.495Z,14.95
2022-12-25T19:31:04.720Z,13.77
2022-12-25T19:33:32.710Z,15.60
2022-12-25T19:36:01.449Z,15.07
2022-12-25T19:38:28.652Z,14.95
2022-12-25T19:41:01.446Z,13.95
2022-12-25T19:43:37.462Z,15.48
2022-12-25T19:46:05.737Z,15.52
2022-12-25T19:48:33.728Z,14.57
2022-12-25T19:51:01.128Z,15.05
2022-12-25T19:53:30.373Z,15.13
2022-12-25T19:56:03.122Z,15.35
2022-12-25T19:58:30.278Z,15.10
2022-12-25T20:01:09.229Z,13.95
2022-12-25T20:03:45.552Z,15.20
2022-12-25T20:06:20.613Z,14.30
2022-12-25T20:08:49.781Z,14.00
2022-12-25T20:11:17.736Z,14.13
2022-12-25T20:13:44.918Z,13.57
2022-12-25T20:16:12.038Z,13.35
2022-12-25T20:18:40.131Z,14.80
2022-12-25T20:21:15.395Z,14.20
2022-12-25T20:23:43.144Z,14.25
2022-12-25T20:26:11.231Z,15.38
2022-12-25T20:28:39.054Z,14.57
2022-12-25T20:31:07.506Z,13.35
2022-12-25T20:33:35.261Z,14.27
2022-12-25T20:36:04.075Z,14.82
2022-12-25T20:38:32.056Z,14.35
2022-12-25T20:43:54.599Z,15.27
2022-12-25T20:46:23.170Z,15.90
2022-12-25T20:48:50.385Z,16.45
2022-12-25T20:51:23.250Z,17.30
2022-12-25T20:53:50.717Z,18.00
2022-12-25T20:56:21.111Z,17.35
2022-12-25T20:58:48.106Z,16.95
2022-12-25T21:01:18.127Z,16.55
2022-12-25T21:03:45.821Z,16.85
2022-12-25T21:06:13.185Z,15.63
2022-12-25T21:08:43.717Z,15.85
2022-12-25T21:11:11.814Z,16.30
2022-12-25T21:13:40.966Z,16.75
2022-12-25T21:16:10.390Z,15.65
2022-12-25T21:18:48.688Z,15.65
2022-12-25T21:21:15.778Z,17.10
2022-12-25T21:23:42.846Z,16.02
2022-12-25T21:26:25.024Z,14.63
2022-12-25T21:28:54.671Z,13.77
2022-12-25T21:31:22.239Z,14.13
2022-12-25T21:33:52.227Z,14.60
2022-12-25T21:36:20.613Z,14.10
2022-12-25T21:38:47.956Z,14.40
2022-12-25T21:41:17.148Z,16.63
2022-12-25T21:43:44.100Z,16.58
2022-12-25T21:46:12.863Z,17.73
2022-12-25T21:52:10.131Z,18.58
2022-12-25T21:54:37.071Z,18.98
2022-12-25T21:57:04.953Z,19.20
2022-12-25T21:59:34.942Z,20.52
2022-12-25T22:02:01.892Z,21.77
2022-12-25T22:04:28.759Z,22.73
2022-12-25T22:07:13.959Z,22.70
2022-12-25T22:09:43.095Z,23.17
2022-12-25T22:12:34.404Z,21.98
2022-12-25T22:15:05.021Z,22.67
2022-12-25T22:17:56.878Z,20.38
2022-12-25T22:20:30.804Z,20.60
2022-12-25T22:22:58.442Z,20.10
2022-12-25T22:25:26.057Z,18.70
2022-12-25T22:27:54.805Z,18.52
2022-12-25T22:30:31.964Z,16.25
2022-12-25T22:32:58.790Z,15.80
2022-12-25T22:35:25.928Z,14.73
2022-12-25T22:37:54.197Z,14.88
2022-12-25T22:40:21.522Z,12.77
2022-12-25T22:42:48.430Z,12.13
2022-12-25T22:45:15.612Z,12.80
2022-12-25T22:47:45.142Z,11.80
2022-12-25T22:50:14.944Z,11.60
2022-12-25T22:52:42.623Z,11.73
2022-12-25T22:55:11.193Z,11.30
2022-12-25T22:57:38.276Z,10.52
2022-12-25T23:00:08.832Z,9.70
2022-12-25T23:02:35.945Z,10.75
2022-12-25T23:05:07.962Z,10.55
2022-12-25T23:07:34.806Z,11.70
2022-12-25T23:10:06.375Z,13.05
2022-12-25T23:12:52.344Z,11.70
2022-12-25T23:15:19.627Z,11.43
2022-12-25T23:18:04.921Z,10.57
2022-12-25T23:20:51.661Z,10.02
2022-12-25T23:23:37.084Z,8.77
2022-12-25T23:26:10.285Z,8.45
2022-12-25T23:28:58.591Z,8.73
2022-12-25T23:31:29.944Z,8.85
2022-12-25T23:33:57.441Z,9.63
2022-12-25T23:36:24.665Z,9.02
2022-12-25T23:38:51.528Z,10.10
2022-12-25T23:41:19.305Z,10.30
2022-12-25T23:43:46.198Z,9.93
2022-12-25T23:46:13.070Z,10.45
2022-12-25T23:48:39.969Z,10.38
2022-12-25T23:51:07.812Z,10.38
2022-12-25T23:53:35.094Z,10.73
2022-12-25T23:56:02.331Z,10.65
2022-12-25T23:58:29.602Z,10.55
